Weather at Zagreb Airport

Public forecast

Using degrees Celsius for public forecast. Weather courtesy of forecast.io.

Current aviation weather report (METAR) for Zagreb Airport

2024/07/21 23:30 (retrieved 21 minutes ago)

LDZA 212330Z 03004KT 360V070 CAVOK 21/19 Q1010 NOSIG

Aviation forecast (TAF) for Zagreb Airport

2024/07/21 18:26 (retrieved 5 hours ago)

TAF LDZA 211725Z 2118/2218 10005KT 9999 FEW035 TX32/2214Z TN18/2203Z PROB30 TEMPO 2205/2207 TS FEW050CB PROB40 TEMPO 2210/2214 35018G28KT TSRA SCT030CB PROB30 TEMPO 2214/2217 32010KT -TSRA FEW030CB